sensor_id;sensor_type;location;lat;lon;timestamp;temperature;humidity
20432;DHT22;10375;49.136;10.366;2023-01-24T00:00:36;1.50;99.90
20432;DHT22;10375;49.136;10.366;2023-01-24T00:03:04;1.50;99.90
20432;DHT22;10375;49.136;10.366;2023-01-24T00:05:34;1.50;99.90
20432;DHT22;10375;49.136;10.366;2023-01-24T00:08:01;1.50;99.90
20432;DHT22;10375;49.136;10.366;2023-01-24T00:10:28;1.60;99.90
20432;DHT22;10375;49.136;10.366;2023-01-24T00:12:56;1.50;99.90
20432;DHT22;10375;49.136;10.366;2023-01-24T00:15:22;1.60;99.90
20432;DHT22;10375;49.136;10.366;2023-01-24T00:17:50;1.60;99.90
20432;DHT22;10375;49.136;10.366;2023-01-24T00:20:17;1.50;99.90
20432;DHT22;10375;49.136;10.366;2023-01-24T00:22:44;1.50;99.90
20432;DHT22;10375;49.136;10.366;2023-01-24T00:25:11;1.50;99.90
20432;DHT22;10375;49.136;10.366;2023-01-24T00:27:38;1.50;99.90
20432;DHT22;10375;49.136;10.366;2023-01-24T00:30:05;1.50;99.90
20432;DHT22;10375;49.136;10.366;2023-01-24T00:32:32;1.60;99.90
20432;DHT22;10375;49.136;10.366;2023-01-24T00:34:59;1.50;99.90
20432;DHT22;10375;49.136;10.366;2023-01-24T00:37:26;1.50;99.90
20432;DHT22;10375;49.136;10.366;2023-01-24T00:39:53;1.50;99.90
20432;DHT22;10375;49.136;10.366;2023-01-24T00:42:20;1.50;99.90
20432;DHT22;10375;49.136;10.366;2023-01-24T00:44:47;1.40;99.90
20432;DHT22;10375;49.136;10.366;2023-01-24T00:47:14;1.50;99.90
20432;DHT22;10375;49.136;10.366;2023-01-24T00:49:41;1.50;99.90
20432;DHT22;10375;49.136;10.366;2023-01-24T00:52:08;1.50;99.90
20432;DHT22;10375;49.136;10.366;2023-01-24T00:54:37;1.50;99.90
20432;DHT22;10375;49.136;10.366;2023-01-24T00:57:04;1.50;99.90
20432;DHT22;10375;49.136;10.366;2023-01-24T00:59:32;1.50;99.90
20432;DHT22;10375;49.136;10.366;2023-01-24T01:01:59;1.50;99.90
20432;DHT22;10375;49.136;10.366;2023-01-24T01:04:26;1.50;99.90
20432;DHT22;10375;49.136;10.366;2023-01-24T01:06:53;1.50;99.90
20432;DHT22;10375;49.136;10.366;2023-01-24T01:09:20;1.50;99.90
20432;DHT22;10375;49.136;10.366;2023-01-24T01:11:47;1.40;99.90
20432;DHT22;10375;49.136;10.366;2023-01-24T01:14:14;1.50;99.90
20432;DHT22;10375;49.136;10.366;2023-01-24T01:16:42;1.40;99.90
20432;DHT22;10375;49.136;10.366;2023-01-24T01:19:09;1.50;99.90
20432;DHT22;10375;49.136;10.366;2023-01-24T01:21:36;1.50;99.90
20432;DHT22;10375;49.136;10.366;2023-01-24T01:24:03;1.50;99.90
20432;DHT22;10375;49.136;10.366;2023-01-24T01:26:30;1.50;99.90
20432;DHT22;10375;49.136;10.366;2023-01-24T01:28:58;1.50;99.90
20432;DHT22;10375;49.136;10.366;2023-01-24T01:31:25;1.50;99.90
20432;DHT22;10375;49.136;10.366;2023-01-24T01:33:52;1.50;99.90
20432;DHT22;10375;49.136;10.366;2023-01-24T01:36:20;1.50;99.90
20432;DHT22;10375;49.136;10.366;2023-01-24T01:38:47;1.40;99.90
20432;DHT22;10375;49.136;10.366;2023-01-24T01:41:14;1.50;99.90
20432;DHT22;10375;49.136;10.366;2023-01-24T01:43:41;1.40;99.90
20432;DHT22;10375;49.136;10.366;2023-01-24T01:46:32;1.40;99.90
20432;DHT22;10375;49.136;10.366;2023-01-24T01:49:02;1.40;99.90
20432;DHT22;10375;49.136;10.366;2023-01-24T01:51:38;1.50;99.90
20432;DHT22;10375;49.136;10.366;2023-01-24T01:54:13;1.50;99.90
20432;DHT22;10375;49.136;10.366;2023-01-24T01:56:46;1.50;99.90
20432;DHT22;10375;49.136;10.366;2023-01-24T01:59:21;1.50;99.90
20432;DHT22;10375;49.136;10.366;2023-01-24T02:01:50;1.50;99.90
20432;DHT22;10375;49.136;10.366;2023-01-24T02:04:31;1.50;99.90
20432;DHT22;10375;49.136;10.366;2023-01-24T02:07:06;1.40;99.90
20432;DHT22;10375;49.136;10.366;2023-01-24T02:09:41;1.40;99.90
20432;DHT22;10375;49.136;10.366;2023-01-24T02:12:18;1.40;99.90
20432;DHT22;10375;49.136;10.366;2023-01-24T02:14:51;1.40;99.90
20432;DHT22;10375;49.136;10.366;2023-01-24T02:17:40;1.40;99.90
20432;DHT22;10375;49.136;10.366;2023-01-24T02:26:02;1.50;99.90
20432;DHT22;10375;49.136;10.366;2023-01-24T02:28:29;1.40;99.90
20432;DHT22;10375;49.136;10.366;2023-01-24T02:30:57;1.40;99.90
20432;DHT22;10375;49.136;10.366;2023-01-24T02:33:24;1.40;99.90
20432;DHT22;10375;49.136;10.366;2023-01-24T02:36:26;1.40;99.90
20432;DHT22;10375;49.136;10.366;2023-01-24T02:39:04;1.40;99.90
20432;DHT22;10375;49.136;10.366;2023-01-24T02:41:38;1.40;99.90
20432;DHT22;10375;49.136;10.366;2023-01-24T02:44:13;1.40;99.90
20432;DHT22;10375;49.136;10.366;2023-01-24T02:46:44;1.40;99.90
20432;DHT22;10375;49.136;10.366;2023-01-24T02:49:12;1.40;99.90
20432;DHT22;10375;49.136;10.366;2023-01-24T02:51:40;1.40;99.90
20432;DHT22;10375;49.136;10.366;2023-01-24T02:54:25;1.40;99.90
20432;DHT22;10375;49.136;10.366;2023-01-24T02:56:52;1.30;99.90
20432;DHT22;10375;49.136;10.366;2023-01-24T02:59:38;1.30;99.90
20432;DHT22;10375;49.136;10.366;2023-01-24T03:02:05;1.30;99.90
20432;DHT22;10375;49.136;10.366;2023-01-24T03:04:32;1.30;99.90
20432;DHT22;10375;49.136;10.366;2023-01-24T03:06:59;1.30;99.90
20432;DHT22;10375;49.136;10.366;2023-01-24T03:09:25;1.30;99.90
20432;DHT22;10375;49.136;10.366;2023-01-24T03:12:03;1.30;99.90
20432;DHT22;10375;49.136;10.366;2023-01-24T03:14:49;1.30;99.90
20432;DHT22;10375;49.136;10.366;2023-01-24T03:17:36;1.20;99.90
20432;DHT22;10375;49.136;10.366;2023-01-24T03:20:22;1.20;99.90
20432;DHT22;10375;49.136;10.366;2023-01-24T03:23:07;1.30;99.90
20432;DHT22;10375;49.136;10.366;2023-01-24T03:25:54;1.30;99.90
20432;DHT22;10375;49.136;10.366;2023-01-24T03:28:40;1.20;99.90
20432;DHT22;10375;49.136;10.366;2023-01-24T03:31:26;1.30;99.90
20432;DHT22;10375;49.136;10.366;2023-01-24T03:34:12;1.30;99.90
20432;DHT22;10375;49.136;10.366;2023-01-24T03:36:58;1.30;99.90
20432;DHT22;10375;49.136;10.366;2023-01-24T03:39:25;1.30;99.90
20432;DHT22;10375;49.136;10.366;2023-01-24T03:42:11;1.20;99.90
20432;DHT22;10375;49.136;10.366;2023-01-24T03:44:38;1.20;99.90
20432;DHT22;10375;49.136;10.366;2023-01-24T03:47:05;1.30;99.90
20432;DHT22;10375;49.136;10.366;2023-01-24T03:49:32;1.20;99.90
20432;DHT22;10375;49.136;10.366;2023-01-24T03:52:18;1.20;99.90
20432;DHT22;10375;49.136;10.366;2023-01-24T03:54:59;1.20;99.90
20432;DHT22;10375;49.136;10.366;2023-01-24T03:57:27;1.30;99.90
20432;DHT22;10375;49.136;10.366;2023-01-24T03:59:54;1.20;99.90
20432;DHT22;10375;49.136;10.366;2023-01-24T04:02:22;1.20;99.90
20432;DHT22;10375;49.136;10.366;2023-01-24T04:04:49;1.30;99.90
20432;DHT22;10375;49.136;10.366;2023-01-24T04:07:35;1.20;99.90
20432;DHT22;10375;49.136;10.366;2023-01-24T04:10:02;1.20;99.90
20432;DHT22;10375;49.136;10.366;2023-01-24T04:12:29;1.30;99.90
20432;DHT22;10375;49.136;10.366;2023-01-24T04:14:56;1.20;99.90
20432;DHT22;10375;49.136;10.366;2023-01-24T04:17:23;1.30;99.90
20432;DHT22;10375;49.136;10.366;2023-01-24T04:19:50;1.30;99.90
20432;DHT22;10375;49.136;10.366;2023-01-24T04:22:17;1.30;99.90
20432;DHT22;10375;49.136;10.366;2023-01-24T04:24:45;1.20;99.90
20432;DHT22;10375;49.136;10.366;2023-01-24T04:27:12;1.20;99.90
20432;DHT22;10375;49.136;10.366;2023-01-24T04:29:39;1.20;99.90
20432;DHT22;10375;49.136;10.366;2023-01-24T04:32:07;1.20;99.90
20432;DHT22;10375;49.136;10.366;2023-01-24T04:34:34;1.20;99.90
20432;DHT22;10375;49.136;10.366;2023-01-24T04:37:02;1.20;99.90
20432;DHT22;10375;49.136;10.366;2023-01-24T04:39:29;1.20;99.90
20432;DHT22;10375;49.136;10.366;2023-01-24T04:42:00;1.20;99.90
20432;DHT22;10375;49.136;10.366;2023-01-24T04:44:27;1.20;99.90
20432;DHT22;10375;49.136;10.366;2023-01-24T04:46:54;1.30;99.90
20432;DHT22;10375;49.136;10.366;2023-01-24T04:49:22;1.30;99.90
20432;DHT22;10375;49.136;10.366;2023-01-24T04:51:50;1.20;99.90
20432;DHT22;10375;49.136;10.366;2023-01-24T04:54:17;1.20;99.90
20432;DHT22;10375;49.136;10.366;2023-01-24T04:56:46;1.20;99.90
20432;DHT22;10375;49.136;10.366;2023-01-24T04:59:13;1.20;99.90
20432;DHT22;10375;49.136;10.366;2023-01-24T05:01:40;1.20;99.90
20432;DHT22;10375;49.136;10.366;2023-01-24T05:04:07;1.20;99.90
20432;DHT22;10375;49.136;10.366;2023-01-24T05:06:34;1.20;99.90
20432;DHT22;10375;49.136;10.366;2023-01-24T05:09:02;1.20;99.90
20432;DHT22;10375;49.136;10.366;2023-01-24T05:11:30;1.20;99.90
20432;DHT22;10375;49.136;10.366;2023-01-24T05:13:57;1.20;99.90
20432;DHT22;10375;49.136;10.366;2023-01-24T05:16:24;1.20;99.90
20432;DHT22;10375;49.136;10.366;2023-01-24T05:18:51;1.20;99.90
20432;DHT22;10375;49.136;10.366;2023-01-24T05:21:18;1.20;99.90
20432;DHT22;10375;49.136;10.366;2023-01-24T05:23:52;1.20;99.90
20432;DHT22;10375;49.136;10.366;2023-01-24T05:26:21;1.20;99.90
20432;DHT22;10375;49.136;10.366;2023-01-24T05:28:49;1.20;99.90
20432;DHT22;10375;49.136;10.366;2023-01-24T05:31:16;1.20;99.90
20432;DHT22;10375;49.136;10.366;2023-01-24T05:33:44;1.20;99.90
20432;DHT22;10375;49.136;10.366;2023-01-24T05:36:16;1.20;99.90
20432;DHT22;10375;49.136;10.366;2023-01-24T05:38:46;1.20;99.90
20432;DHT22;10375;49.136;10.366;2023-01-24T05:41:14;1.20;99.90
20432;DHT22;10375;49.136;10.366;2023-01-24T05:43:45;1.20;99.90
20432;DHT22;10375;49.136;10.366;2023-01-24T05:46:15;1.20;99.90
20432;DHT22;10375;49.136;10.366;2023-01-24T05:48:45;1.20;99.90
20432;DHT22;10375;49.136;10.366;2023-01-24T05:51:16;1.20;99.90
20432;DHT22;10375;49.136;10.366;2023-01-24T05:53:44;1.20;99.90
20432;DHT22;10375;49.136;10.366;2023-01-24T05:56:15;1.20;99.90
20432;DHT22;10375;49.136;10.366;2023-01-24T05:58:44;1.20;99.90
20432;DHT22;10375;49.136;10.366;2023-01-24T06:01:17;1.20;99.90
20432;DHT22;10375;49.136;10.366;2023-01-24T06:03:49;1.20;99.90
20432;DHT22;10375;49.136;10.366;2023-01-24T06:06:21;1.10;99.90
20432;DHT22;10375;49.136;10.366;2023-01-24T06:08:49;1.10;99.90
20432;DHT22;10375;49.136;10.366;2023-01-24T06:11:19;1.10;99.90
20432;DHT22;10375;49.136;10.366;2023-01-24T06:13:46;1.10;99.90
20432;DHT22;10375;49.136;10.366;2023-01-24T06:16:19;1.20;99.90
20432;DHT22;10375;49.136;10.366;2023-01-24T06:18:48;1.20;99.90
20432;DHT22;10375;49.136;10.366;2023-01-24T06:23:51;1.20;99.90
20432;DHT22;10375;49.136;10.366;2023-01-24T06:26:19;1.20;99.90
20432;DHT22;10375;49.136;10.366;2023-01-24T06:28:46;1.20;99.90
20432;DHT22;10375;49.136;10.366;2023-01-24T06:31:47;1.20;99.90
20432;DHT22;10375;49.136;10.366;2023-01-24T06:37:20;1.20;99.90
20432;DHT22;10375;49.136;10.366;2023-01-24T06:39:52;1.20;99.90
20432;DHT22;10375;49.136;10.366;2023-01-24T06:42:21;1.20;99.90
20432;DHT22;10375;49.136;10.366;2023-01-24T06:44:51;1.30;99.90
20432;DHT22;10375;49.136;10.366;2023-01-24T06:47:18;1.20;99.90
20432;DHT22;10375;49.136;10.366;2023-01-24T06:49:45;1.20;99.90
20432;DHT22;10375;49.136;10.366;2023-01-24T06:52:12;1.20;99.90
20432;DHT22;10375;49.136;10.366;2023-01-24T06:54:40;1.20;99.90
20432;DHT22;10375;49.136;10.366;2023-01-24T06:57:09;1.20;99.90
20432;DHT22;10375;49.136;10.366;2023-01-24T06:59:36;1.20;99.90
20432;DHT22;10375;49.136;10.366;2023-01-24T07:02:03;1.20;99.90
20432;DHT22;10375;49.136;10.366;2023-01-24T07:04:30;1.20;99.90
20432;DHT22;10375;49.136;10.366;2023-01-24T07:06:58;1.20;99.90
20432;DHT22;10375;49.136;10.366;2023-01-24T07:09:25;1.20;99.90
20432;DHT22;10375;49.136;10.366;2023-01-24T07:11:53;1.10;99.90
20432;DHT22;10375;49.136;10.366;2023-01-24T07:14:23;1.20;99.90
20432;DHT22;10375;49.136;10.366;2023-01-24T07:16:51;1.20;99.90
20432;DHT22;10375;49.136;10.366;2023-01-24T07:19:20;1.20;99.90
20432;DHT22;10375;49.136;10.366;2023-01-24T07:21:54;1.10;99.90
20432;DHT22;10375;49.136;10.366;2023-01-24T07:24:28;1.20;99.90
20432;DHT22;10375;49.136;10.366;2023-01-24T07:26:56;1.20;99.90
20432;DHT22;10375;49.136;10.366;2023-01-24T07:29:25;1.20;99.90
20432;DHT22;10375;49.136;10.366;2023-01-24T07:34:41;1.20;99.90
20432;DHT22;10375;49.136;10.366;2023-01-24T07:37:08;1.20;99.90
20432;DHT22;10375;49.136;10.366;2023-01-24T07:39:49;1.30;99.90
20432;DHT22;10375;49.136;10.366;2023-01-24T07:42:16;1.30;99.90
20432;DHT22;10375;49.136;10.366;2023-01-24T07:44:43;1.30;99.90
20432;DHT22;10375;49.136;10.366;2023-01-24T07:47:11;1.30;99.90
20432;DHT22;10375;49.136;10.366;2023-01-24T07:49:38;1.30;99.90
20432;DHT22;10375;49.136;10.366;2023-01-24T07:52:06;1.40;99.90
20432;DHT22;10375;49.136;10.366;2023-01-24T07:54:33;1.40;99.90
20432;DHT22;10375;49.136;10.366;2023-01-24T07:57:03;1.40;99.90
20432;DHT22;10375;49.136;10.366;2023-01-24T07:59:30;1.40;99.90
20432;DHT22;10375;49.136;10.366;2023-01-24T08:02:06;1.40;99.90
20432;DHT22;10375;49.136;10.366;2023-01-24T08:04:35;1.40;99.90
20432;DHT22;10375;49.136;10.366;2023-01-24T08:07:02;1.40;99.90
20432;DHT22;10375;49.136;10.366;2023-01-24T08:09:45;1.40;99.90
20432;DHT22;10375;49.136;10.366;2023-01-24T08:12:13;1.40;99.90
20432;DHT22;10375;49.136;10.366;2023-01-24T08:14:40;1.40;99.90
20432;DHT22;10375;49.136;10.366;2023-01-24T08:17:07;1.40;99.90
20432;DHT22;10375;49.136;10.366;2023-01-24T08:19:35;1.50;99.90
20432;DHT22;10375;49.136;10.366;2023-01-24T08:22:23;1.40;99.90
20432;DHT22;10375;49.136;10.366;2023-01-24T08:24:51;1.50;99.90
20432;DHT22;10375;49.136;10.366;2023-01-24T08:27:19;1.50;99.90
20432;DHT22;10375;49.136;10.366;2023-01-24T08:29:46;1.50;99.90
20432;DHT22;10375;49.136;10.366;2023-01-24T08:32:15;1.60;99.90
20432;DHT22;10375;49.136;10.366;2023-01-24T08:34:43;1.60;99.90
20432;DHT22;10375;49.136;10.366;2023-01-24T08:37:12;1.60;99.90
20432;DHT22;10375;49.136;10.366;2023-01-24T08:39:39;1.70;99.90
20432;DHT22;10375;49.136;10.366;2023-01-24T08:42:06;1.70;99.90
20432;DHT22;10375;49.136;10.366;2023-01-24T08:44:33;1.70;99.90
20432;DHT22;10375;49.136;10.366;2023-01-24T08:47:00;1.80;99.90
20432;DHT22;10375;49.136;10.366;2023-01-24T08:49:43;1.80;99.90
20432;DHT22;10375;49.136;10.366;2023-01-24T08:52:10;1.90;99.90
20432;DHT22;10375;49.136;10.366;2023-01-24T08:54:37;1.90;99.90
20432;DHT22;10375;49.136;10.366;2023-01-24T08:57:06;1.90;99.90
20432;DHT22;10375;49.136;10.366;2023-01-24T08:59:35;1.90;99.90
20432;DHT22;10375;49.136;10.366;2023-01-24T09:02:03;1.90;99.90
20432;DHT22;10375;49.136;10.366;2023-01-24T09:04:31;1.90;99.90
20432;DHT22;10375;49.136;10.366;2023-01-24T09:06:58;2.00;99.90
20432;DHT22;10375;49.136;10.366;2023-01-24T09:09:25;2.00;99.90
20432;DHT22;10375;49.136;10.366;2023-01-24T09:11:52;2.00;99.90
20432;DHT22;10375;49.136;10.366;2023-01-24T09:14:20;2.00;99.90
20432;DHT22;10375;49.136;10.366;2023-01-24T09:16:47;2.00;99.90
20432;DHT22;10375;49.136;10.366;2023-01-24T09:19:23;2.10;99.90
20432;DHT22;10375;49.136;10.366;2023-01-24T09:21:53;2.10;99.90
20432;DHT22;10375;49.136;10.366;2023-01-24T09:24:24;2.10;99.90
20432;DHT22;10375;49.136;10.366;2023-01-24T09:26:51;2.10;99.90
20432;DHT22;10375;49.136;10.366;2023-01-24T09:29:18;2.10;99.90
20432;DHT22;10375;49.136;10.366;2023-01-24T09:31:47;2.20;99.90
20432;DHT22;10375;49.136;10.366;2023-01-24T09:34:14;2.20;99.90
20432;DHT22;10375;49.136;10.366;2023-01-24T09:36:41;2.20;99.90
20432;DHT22;10375;49.136;10.366;2023-01-24T09:39:09;2.20;99.90
20432;DHT22;10375;49.136;10.366;2023-01-24T09:47:55;2.30;99.90
20432;DHT22;10375;49.136;10.366;2023-01-24T09:50:34;2.40;99.90
20432;DHT22;10375;49.136;10.366;2023-01-24T09:53:08;2.40;99.90
20432;DHT22;10375;49.136;10.366;2023-01-24T09:55:46;2.30;99.90
20432;DHT22;10375;49.136;10.366;2023-01-24T09:58:30;2.30;99.90
20432;DHT22;10375;49.136;10.366;2023-01-24T10:01:12;2.40;99.90
20432;DHT22;10375;49.136;10.366;2023-01-24T10:03:40;2.50;99.90
20432;DHT22;10375;49.136;10.366;2023-01-24T10:06:22;2.50;99.90
20432;DHT22;10375;49.136;10.366;2023-01-24T10:09:18;2.50;99.90
20432;DHT22;10375;49.136;10.366;2023-01-24T10:14:49;2.50;99.90
20432;DHT22;10375;49.136;10.366;2023-01-24T10:25:57;2.70;99.90
20432;DHT22;10375;49.136;10.366;2023-01-24T10:28:35;2.80;99.90
20432;DHT22;10375;49.136;10.366;2023-01-24T10:31:12;2.80;99.90
20432;DHT22;10375;49.136;10.366;2023-01-24T10:33:48;2.80;99.90
20432;DHT22;10375;49.136;10.366;2023-01-24T10:36:33;2.70;99.90
20432;DHT22;10375;49.136;10.366;2023-01-24T10:39:02;2.60;99.90
20432;DHT22;10375;49.136;10.366;2023-01-24T10:41:33;2.60;99.90
20432;DHT22;10375;49.136;10.366;2023-01-24T10:44:11;2.50;99.90
20432;DHT22;10375;49.136;10.366;2023-01-24T10:49:25;2.60;99.90
20432;DHT22;10375;49.136;10.366;2023-01-24T10:52:20;2.60;99.90
20432;DHT22;10375;49.136;10.366;2023-01-24T10:54:51;2.60;99.90
20432;DHT22;10375;49.136;10.366;2023-01-24T11:02:56;2.70;99.90
20432;DHT22;10375;49.136;10.366;2023-01-24T11:05:34;2.70;99.90
20432;DHT22;10375;49.136;10.366;2023-01-24T11:08:02;2.70;99.90
20432;DHT22;10375;49.136;10.366;2023-01-24T11:10:41;2.70;99.90
20432;DHT22;10375;49.136;10.366;2023-01-24T11:13:34;2.80;99.90
20432;DHT22;10375;49.136;10.366;2023-01-24T11:21:30;2.90;99.90
20432;DHT22;10375;49.136;10.366;2023-01-24T11:26:36;2.90;99.90
20432;DHT22;10375;49.136;10.366;2023-01-24T11:29:14;3.00;99.90
20432;DHT22;10375;49.136;10.366;2023-01-24T11:38:22;3.10;99.90
20432;DHT22;10375;49.136;10.366;2023-01-24T11:40:42;3.10;99.90
20432;DHT22;10375;49.136;10.366;2023-01-24T12:00:49;3.00;99.90
20432;DHT22;10375;49.136;10.366;2023-01-24T12:06:13;3.00;99.90
20432;DHT22;10375;49.136;10.366;2023-01-24T12:12:28;3.00;99.90
20432;DHT22;10375;49.136;10.366;2023-01-24T12:15:37;3.00;99.90
20432;DHT22;10375;49.136;10.366;2023-01-24T12:21:09;3.00;99.90
20432;DHT22;10375;49.136;10.366;2023-01-24T12:26:47;3.00;99.90
20432;DHT22;10375;49.136;10.366;2023-01-24T12:40:56;3.10;99.90
20432;DHT22;10375;49.136;10.366;2023-01-24T12:43:58;3.00;99.90
20432;DHT22;10375;49.136;10.366;2023-01-24T12:46:35;3.10;99.90
20432;DHT22;10375;49.136;10.366;2023-01-24T12:51:56;3.10;99.90
20432;DHT22;10375;49.136;10.366;2023-01-24T12:54:32;3.10;99.90
20432;DHT22;10375;49.136;10.366;2023-01-24T12:59:41;2.90;99.90
20432;DHT22;10375;49.136;10.366;2023-01-24T13:11:21;2.80;99.90
20432;DHT22;10375;49.136;10.366;2023-01-24T13:25:40;2.80;99.90
20432;DHT22;10375;49.136;10.366;2023-01-24T13:30:41;2.70;99.90
20432;DHT22;10375;49.136;10.366;2023-01-24T13:33:25;2.70;99.90
20432;DHT22;10375;49.136;10.366;2023-01-24T13:35:54;2.70;99.90
20432;DHT22;10375;49.136;10.366;2023-01-24T13:38:30;2.70;99.90
20432;DHT22;10375;49.136;10.366;2023-01-24T13:41:05;2.70;99.90
20432;DHT22;10375;49.136;10.366;2023-01-24T13:46:03;2.70;99.90
20432;DHT22;10375;49.136;10.366;2023-01-24T13:48:44;2.60;99.90
20432;DHT22;10375;49.136;10.366;2023-01-24T13:59:39;2.50;99.90
20432;DHT22;10375;49.136;10.366;2023-01-24T14:02:31;2.50;99.90
20432;DHT22;10375;49.136;10.366;2023-01-24T14:05:00;2.40;99.90
20432;DHT22;10375;49.136;10.366;2023-01-24T14:07:36;2.40;99.90
20432;DHT22;10375;49.136;10.366;2023-01-24T14:10:06;2.40;99.90
20432;DHT22;10375;49.136;10.366;2023-01-24T14:12:39;2.40;99.90
20432;DHT22;10375;49.136;10.366;2023-01-24T14:20:33;2.40;99.90
20432;DHT22;10375;49.136;10.366;2023-01-24T14:23:09;2.40;99.90
20432;DHT22;10375;49.136;10.366;2023-01-24T14:28:25;2.40;99.90
20432;DHT22;10375;49.136;10.366;2023-01-24T14:30:57;2.40;99.90
20432;DHT22;10375;49.136;10.366;2023-01-24T14:33:52;2.40;99.90
20432;DHT22;10375;49.136;10.366;2023-01-24T14:39:20;2.30;99.90
20432;DHT22;10375;49.136;10.366;2023-01-24T14:44:27;2.30;99.90
20432;DHT22;10375;49.136;10.366;2023-01-24T14:46:56;2.30;99.90
20432;DHT22;10375;49.136;10.366;2023-01-24T14:49:35;2.30;99.90
20432;DHT22;10375;49.136;10.366;2023-01-24T14:55:12;2.30;99.90
20432;DHT22;10375;49.136;10.366;2023-01-24T14:57:39;2.30;99.90
20432;DHT22;10375;49.136;10.366;2023-01-24T15:02:39;2.30;99.90
20432;DHT22;10375;49.136;10.366;2023-01-24T15:07:53;2.30;99.90
20432;DHT22;10375;49.136;10.366;2023-01-24T15:10:35;2.20;99.90
20432;DHT22;10375;49.136;10.366;2023-01-24T15:13:08;2.20;99.90
20432;DHT22;10375;49.136;10.366;2023-01-24T15:15:36;2.20;99.90
20432;DHT22;10375;49.136;10.366;2023-01-24T15:18:18;2.20;99.90
20432;DHT22;10375;49.136;10.366;2023-01-24T15:20:49;2.20;99.90
20432;DHT22;10375;49.136;10.366;2023-01-24T15:23:20;2.20;99.90
20432;DHT22;10375;49.136;10.366;2023-01-24T15:25:47;2.20;99.90
20432;DHT22;10375;49.136;10.366;2023-01-24T15:31:03;2.10;99.90
20432;DHT22;10375;49.136;10.366;2023-01-24T15:33:42;2.20;99.90
20432;DHT22;10375;49.136;10.366;2023-01-24T15:36:27;2.10;99.90
20432;DHT22;10375;49.136;10.366;2023-01-24T15:41:49;2.10;99.90
20432;DHT22;10375;49.136;10.366;2023-01-24T15:44:46;2.00;99.90
20432;DHT22;10375;49.136;10.366;2023-01-24T15:47:21;2.00;99.90
20432;DHT22;10375;49.136;10.366;2023-01-24T15:50:22;2.00;99.90
20432;DHT22;10375;49.136;10.366;2023-01-24T15:53:34;1.90;99.90
20432;DHT22;10375;49.136;10.366;2023-01-24T15:56:32;2.00;99.90
20432;DHT22;10375;49.136;10.366;2023-01-24T15:59:02;2.00;99.90
20432;DHT22;10375;49.136;10.366;2023-01-24T16:01:31;2.00;99.90
20432;DHT22;10375;49.136;10.366;2023-01-24T16:04:13;2.00;99.90
20432;DHT22;10375;49.136;10.366;2023-01-24T16:06:43;2.00;99.90
20432;DHT22;10375;49.136;10.366;2023-01-24T16:09:10;1.90;99.90
20432;DHT22;10375;49.136;10.366;2023-01-24T16:11:45;2.00;99.90
20432;DHT22;10375;49.136;10.366;2023-01-24T16:14:39;1.90;99.90
20432;DHT22;10375;49.136;10.366;2023-01-24T16:17:10;1.90;99.90
20432;DHT22;10375;49.136;10.366;2023-01-24T16:19:39;1.80;99.90
20432;DHT22;10375;49.136;10.366;2023-01-24T16:22:22;1.80;99.90
20432;DHT22;10375;49.136;10.366;2023-01-24T16:25:20;1.80;99.90
20432;DHT22;10375;49.136;10.366;2023-01-24T16:27:52;1.90;99.90
20432;DHT22;10375;49.136;10.366;2023-01-24T16:30:25;1.90;99.90
20432;DHT22;10375;49.136;10.366;2023-01-24T16:33:01;1.90;99.90
20432;DHT22;10375;49.136;10.366;2023-01-24T16:35:46;1.90;99.90
20432;DHT22;10375;49.136;10.366;2023-01-24T16:38:18;1.80;99.90
20432;DHT22;10375;49.136;10.366;2023-01-24T16:41:02;1.90;99.90
20432;DHT22;10375;49.136;10.366;2023-01-24T16:43:30;1.80;99.90
20432;DHT22;10375;49.136;10.366;2023-01-24T16:46:01;1.80;99.90
20432;DHT22;10375;49.136;10.366;2023-01-24T16:48:39;1.80;99.90
20432;DHT22;10375;49.136;10.366;2023-01-24T16:51:11;1.80;99.90
20432;DHT22;10375;49.136;10.366;2023-01-24T16:53:39;1.80;99.90
20432;DHT22;10375;49.136;10.366;2023-01-24T16:56:10;1.80;99.90
20432;DHT22;10375;49.136;10.366;2023-01-24T16:58:38;1.70;99.90
20432;DHT22;10375;49.136;10.366;2023-01-24T17:01:07;1.80;99.90
20432;DHT22;10375;49.136;10.366;2023-01-24T17:03:46;1.70;99.90
20432;DHT22;10375;49.136;10.366;2023-01-24T17:06:30;1.70;99.90
20432;DHT22;10375;49.136;10.366;2023-01-24T17:09:07;1.70;99.90
20432;DHT22;10375;49.136;10.366;2023-01-24T17:11:42;1.70;99.90
20432;DHT22;10375;49.136;10.366;2023-01-24T17:14:38;1.70;99.90
20432;DHT22;10375;49.136;10.366;2023-01-24T17:17:19;1.70;99.90
20432;DHT22;10375;49.136;10.366;2023-01-24T17:19:48;1.60;99.90
20432;DHT22;10375;49.136;10.366;2023-01-24T17:22:27;1.60;99.90
20432;DHT22;10375;49.136;10.366;2023-01-24T17:25:11;1.60;99.90
20432;DHT22;10375;49.136;10.366;2023-01-24T17:47:21;1.70;99.90
20432;DHT22;10375;49.136;10.366;2023-01-24T17:50:06;1.70;99.90
20432;DHT22;10375;49.136;10.366;2023-01-24T17:52:50;1.70;99.90
20432;DHT22;10375;49.136;10.366;2023-01-24T18:03:00;1.70;99.90
20432;DHT22;10375;49.136;10.366;2023-01-24T18:06:11;1.60;99.90
20432;DHT22;10375;49.136;10.366;2023-01-24T18:08:56;1.60;99.90
20432;DHT22;10375;49.136;10.366;2023-01-24T18:12:26;1.60;99.90
20432;DHT22;10375;49.136;10.366;2023-01-24T18:15:00;1.60;99.90
20432;DHT22;10375;49.136;10.366;2023-01-24T18:17:40;1.50;99.90
20432;DHT22;10375;49.136;10.366;2023-01-24T18:20:20;1.50;99.90
20432;DHT22;10375;49.136;10.366;2023-01-24T18:22:59;1.60;99.90
20432;DHT22;10375;49.136;10.366;2023-01-24T18:28:54;1.50;99.90
20432;DHT22;10375;49.136;10.366;2023-01-24T18:31:54;1.60;99.90
20432;DHT22;10375;49.136;10.366;2023-01-24T18:35:18;1.60;99.90
20432;DHT22;10375;49.136;10.366;2023-01-24T18:37:54;1.60;99.90
20432;DHT22;10375;49.136;10.366;2023-01-24T18:40:50;1.60;99.90
20432;DHT22;10375;49.136;10.366;2023-01-24T18:47:08;1.60;99.90
20432;DHT22;10375;49.136;10.366;2023-01-24T18:53:24;1.60;99.90
20432;DHT22;10375;49.136;10.366;2023-01-24T18:56:32;1.60;99.90
20432;DHT22;10375;49.136;10.366;2023-01-24T18:59:48;1.60;99.90
20432;DHT22;10375;49.136;10.366;2023-01-24T19:02:23;1.60;99.90
20432;DHT22;10375;49.136;10.366;2023-01-24T19:05:00;1.50;99.90
20432;DHT22;10375;49.136;10.366;2023-01-24T19:07:47;1.50;99.90
20432;DHT22;10375;49.136;10.366;2023-01-24T19:10:22;1.50;99.90
20432;DHT22;10375;49.136;10.366;2023-01-24T19:12:53;1.60;99.90
20432;DHT22;10375;49.136;10.366;2023-01-24T19:15:24;1.50;99.90
20432;DHT22;10375;49.136;10.366;2023-01-24T19:17:53;1.50;99.90
20432;DHT22;10375;49.136;10.366;2023-01-24T19:20:23;1.50;99.90
20432;DHT22;10375;49.136;10.366;2023-01-24T19:23:05;1.40;99.90
20432;DHT22;10375;49.136;10.366;2023-01-24T19:25:34;1.50;99.90
20432;DHT22;10375;49.136;10.366;2023-01-24T19:28:06;1.40;99.90
20432;DHT22;10375;49.136;10.366;2023-01-24T19:30:34;1.50;99.90